sensor_id;sensor_type;location;lat;lon;timestamp;temperature;humidity
16625;DHT22;8426;48.496;9.098;2023-03-15T00:03:09;1.60;99.90
16625;DHT22;8426;48.496;9.098;2023-03-15T00:08:13;1.50;99.90
16625;DHT22;8426;48.496;9.098;2023-03-15T00:13:17;1.50;99.90
16625;DHT22;8426;48.496;9.098;2023-03-15T00:18:22;1.50;99.90
16625;DHT22;8426;48.496;9.098;2023-03-15T00:23:25;1.50;99.90
16625;DHT22;8426;48.496;9.098;2023-03-15T00:28:30;1.50;99.90
16625;DHT22;8426;48.496;9.098;2023-03-15T00:33:35;1.50;99.90
16625;DHT22;8426;48.496;9.098;2023-03-15T00:38:40;1.50;99.90
16625;DHT22;8426;48.496;9.098;2023-03-15T00:43:46;1.50;99.90
16625;DHT22;8426;48.496;9.098;2023-03-15T00:48:53;1.40;99.90
16625;DHT22;8426;48.496;9.098;2023-03-15T00:53:56;1.40;99.90
16625;DHT22;8426;48.496;9.098;2023-03-15T00:58:59;1.40;99.90
16625;DHT22;8426;48.496;9.098;2023-03-15T01:04:04;1.50;99.90
16625;DHT22;8426;48.496;9.098;2023-03-15T01:09:09;1.50;99.90
16625;DHT22;8426;48.496;9.098;2023-03-15T01:14:12;1.50;99.90
16625;DHT22;8426;48.496;9.098;2023-03-15T01:19:17;1.40;99.90
16625;DHT22;8426;48.496;9.098;2023-03-15T01:24:21;1.30;99.90
16625;DHT22;8426;48.496;9.098;2023-03-15T01:29:24;1.30;99.90
16625;DHT22;8426;48.496;9.098;2023-03-15T01:34:30;1.20;99.90
16625;DHT22;8426;48.496;9.098;2023-03-15T01:39:34;1.30;99.90
16625;DHT22;8426;48.496;9.098;2023-03-15T01:44:49;1.30;99.90
16625;DHT22;8426;48.496;9.098;2023-03-15T01:49:59;1.20;99.90
16625;DHT22;8426;48.496;9.098;2023-03-15T01:55:07;0.90;99.90
16625;DHT22;8426;48.496;9.098;2023-03-15T02:00:14;0.60;99.90
16625;DHT22;8426;48.496;9.098;2023-03-15T02:05:26;0.40;99.90
16625;DHT22;8426;48.496;9.098;2023-03-15T02:10:36;0.30;99.90
16625;DHT22;8426;48.496;9.098;2023-03-15T02:15:40;0.20;99.90
16625;DHT22;8426;48.496;9.098;2023-03-15T02:20:52;0.10;99.90
16625;DHT22;8426;48.496;9.098;2023-03-15T02:26:09;0.00;99.90
16625;DHT22;8426;48.496;9.098;2023-03-15T02:31:16;-0.10;99.90
16625;DHT22;8426;48.496;9.098;2023-03-15T02:36:23;-0.20;99.90
16625;DHT22;8426;48.496;9.098;2023-03-15T02:41:29;-0.20;99.90
16625;DHT22;8426;48.496;9.098;2023-03-15T02:46:35;-0.20;99.90
16625;DHT22;8426;48.496;9.098;2023-03-15T02:51:39;-0.30;99.90
16625;DHT22;8426;48.496;9.098;2023-03-15T02:56:43;-0.20;99.90
16625;DHT22;8426;48.496;9.098;2023-03-15T03:01:47;-0.20;99.90
16625;DHT22;8426;48.496;9.098;2023-03-15T03:06:51;-0.30;99.90
16625;DHT22;8426;48.496;9.098;2023-03-15T03:11:54;-0.40;99.90
16625;DHT22;8426;48.496;9.098;2023-03-15T03:16:58;-0.50;99.90
16625;DHT22;8426;48.496;9.098;2023-03-15T03:22:02;-0.60;99.90
16625;DHT22;8426;48.496;9.098;2023-03-15T03:27:06;-0.60;99.90
16625;DHT22;8426;48.496;9.098;2023-03-15T03:32:13;-0.60;99.90
16625;DHT22;8426;48.496;9.098;2023-03-15T03:37:16;-0.70;99.90
16625;DHT22;8426;48.496;9.098;2023-03-15T03:42:20;-0.70;99.90
16625;DHT22;8426;48.496;9.098;2023-03-15T03:47:27;-0.80;99.90
16625;DHT22;8426;48.496;9.098;2023-03-15T03:52:31;-0.80;99.90
16625;DHT22;8426;48.496;9.098;2023-03-15T03:57:34;-0.90;99.90
16625;DHT22;8426;48.496;9.098;2023-03-15T04:02:39;-1.00;99.90
16625;DHT22;8426;48.496;9.098;2023-03-15T04:07:43;-1.10;99.90
16625;DHT22;8426;48.496;9.098;2023-03-15T04:12:47;-1.10;99.90
16625;DHT22;8426;48.496;9.098;2023-03-15T04:17:52;-1.10;99.90
16625;DHT22;8426;48.496;9.098;2023-03-15T04:23:00;-1.30;99.90
16625;DHT22;8426;48.496;9.098;2023-03-15T04:28:03;-1.40;99.90
16625;DHT22;8426;48.496;9.098;2023-03-15T04:33:13;-1.40;99.90
16625;DHT22;8426;48.496;9.098;2023-03-15T04:38:16;-1.40;99.90
16625;DHT22;8426;48.496;9.098;2023-03-15T04:43:20;-1.40;99.90
16625;DHT22;8426;48.496;9.098;2023-03-15T04:48:26;-1.50;99.90
16625;DHT22;8426;48.496;9.098;2023-03-15T04:53:31;-1.60;99.90
16625;DHT22;8426;48.496;9.098;2023-03-15T04:58:34;-1.60;99.90
16625;DHT22;8426;48.496;9.098;2023-03-15T05:03:39;-1.60;99.90
16625;DHT22;8426;48.496;9.098;2023-03-15T05:08:42;-1.60;99.90
16625;DHT22;8426;48.496;9.098;2023-03-15T05:13:48;-1.80;99.90
16625;DHT22;8426;48.496;9.098;2023-03-15T05:18:52;-1.80;99.90
16625;DHT22;8426;48.496;9.098;2023-03-15T05:23:57;-1.80;99.90
16625;DHT22;8426;48.496;9.098;2023-03-15T05:29:02;-1.80;99.90
16625;DHT22;8426;48.496;9.098;2023-03-15T05:34:07;-1.80;99.90
16625;DHT22;8426;48.496;9.098;2023-03-15T05:39:12;-1.80;99.90
16625;DHT22;8426;48.496;9.098;2023-03-15T05:44:17;-1.90;99.90
16625;DHT22;8426;48.496;9.098;2023-03-15T05:49:24;-1.90;99.90
16625;DHT22;8426;48.496;9.098;2023-03-15T05:54:28;-1.90;99.90
16625;DHT22;8426;48.496;9.098;2023-03-15T05:59:32;-1.60;99.90
16625;DHT22;8426;48.496;9.098;2023-03-15T06:04:36;-1.50;99.90
16625;DHT22;8426;48.496;9.098;2023-03-15T06:09:40;-1.40;99.90
16625;DHT22;8426;48.496;9.098;2023-03-15T06:14:44;-1.20;99.90
16625;DHT22;8426;48.496;9.098;2023-03-15T06:19:48;-1.10;99.90
16625;DHT22;8426;48.496;9.098;2023-03-15T06:24:56;-0.90;99.90
16625;DHT22;8426;48.496;9.098;2023-03-15T06:30:00;-0.90;99.90
16625;DHT22;8426;48.496;9.098;2023-03-15T06:35:06;-0.70;99.90
16625;DHT22;8426;48.496;9.098;2023-03-15T06:40:11;-0.50;99.90
16625;DHT22;8426;48.496;9.098;2023-03-15T06:45:16;-0.30;99.90
16625;DHT22;8426;48.496;9.098;2023-03-15T06:50:24;1.90;99.90
16625;DHT22;8426;48.496;9.098;2023-03-15T06:55:35;5.20;99.90
16625;DHT22;8426;48.496;9.098;2023-03-15T07:00:40;6.60;99.90
16625;DHT22;8426;48.496;9.098;2023-03-15T07:05:45;7.70;99.90
16625;DHT22;8426;48.496;9.098;2023-03-15T07:10:51;9.00;99.90
16625;DHT22;8426;48.496;9.098;2023-03-15T07:15:55;9.70;99.90
16625;DHT22;8426;48.496;9.098;2023-03-15T07:21:00;10.00;99.90
16625;DHT22;8426;48.496;9.098;2023-03-15T07:26:04;10.50;99.90
16625;DHT22;8426;48.496;9.098;2023-03-15T07:31:09;10.00;99.90
16625;DHT22;8426;48.496;9.098;2023-03-15T07:36:17;10.60;99.90
16625;DHT22;8426;48.496;9.098;2023-03-15T07:41:21;10.80;99.90
16625;DHT22;8426;48.496;9.098;2023-03-15T07:46:24;10.40;99.90
16625;DHT22;8426;48.496;9.098;2023-03-15T07:51:33;10.00;99.90
16625;DHT22;8426;48.496;9.098;2023-03-15T07:56:38;9.10;99.90
16625;DHT22;8426;48.496;9.098;2023-03-15T08:01:44;9.70;99.90
16625;DHT22;8426;48.496;9.098;2023-03-15T08:06:48;10.50;99.90
16625;DHT22;8426;48.496;9.098;2023-03-15T08:11:52;11.30;99.90
16625;DHT22;8426;48.496;9.098;2023-03-15T08:16:58;11.60;99.90
16625;DHT22;8426;48.496;9.098;2023-03-15T08:22:05;11.80;99.90
16625;DHT22;8426;48.496;9.098;2023-03-15T08:27:09;10.50;99.90
16625;DHT22;8426;48.496;9.098;2023-03-15T08:32:12;9.90;99.90
16625;DHT22;8426;48.496;9.098;2023-03-15T08:37:21;10.30;99.90
16625;DHT22;8426;48.496;9.098;2023-03-15T08:42:25;11.70;99.90
16625;DHT22;8426;48.496;9.098;2023-03-15T08:47:29;11.90;99.90
16625;DHT22;8426;48.496;9.098;2023-03-15T08:52:34;12.20;99.90
16625;DHT22;8426;48.496;9.098;2023-03-15T08:57:39;12.20;99.90
16625;DHT22;8426;48.496;9.098;2023-03-15T09:02:43;10.70;99.90
16625;DHT22;8426;48.496;9.098;2023-03-15T09:07:49;11.70;99.90
16625;DHT22;8426;48.496;9.098;2023-03-15T09:12:54;11.70;99.90
16625;DHT22;8426;48.496;9.098;2023-03-15T09:18:00;11.60;99.90
16625;DHT22;8426;48.496;9.098;2023-03-15T09:23:06;11.90;99.90
16625;DHT22;8426;48.496;9.098;2023-03-15T09:28:11;12.20;99.90
16625;DHT22;8426;48.496;9.098;2023-03-15T09:33:15;12.40;99.90
16625;DHT22;8426;48.496;9.098;2023-03-15T09:38:24;10.90;99.90
16625;DHT22;8426;48.496;9.098;2023-03-15T09:43:50;10.30;99.90
16625;DHT22;8426;48.496;9.098;2023-03-15T09:49:04;9.20;99.90
16625;DHT22;8426;48.496;9.098;2023-03-15T09:54:19;8.50;99.90
16625;DHT22;8426;48.496;9.098;2023-03-15T09:59:29;8.30;99.90
16625;DHT22;8426;48.496;9.098;2023-03-15T10:04:35;9.60;99.90
16625;DHT22;8426;48.496;9.098;2023-03-15T10:09:44;10.20;99.90
16625;DHT22;8426;48.496;9.098;2023-03-15T10:15:03;10.10;99.90
16625;DHT22;8426;48.496;9.098;2023-03-15T10:20:16;9.90;99.90
16625;DHT22;8426;48.496;9.098;2023-03-15T10:25:25;9.80;99.90
16625;DHT22;8426;48.496;9.098;2023-03-15T10:30:30;9.90;99.90
16625;DHT22;8426;48.496;9.098;2023-03-15T10:35:35;9.80;99.90
16625;DHT22;8426;48.496;9.098;2023-03-15T10:40:42;9.90;99.90
16625;DHT22;8426;48.496;9.098;2023-03-15T10:45:58;9.10;99.90
16625;DHT22;8426;48.496;9.098;2023-03-15T10:51:04;8.50;99.90
16625;DHT22;8426;48.496;9.098;2023-03-15T10:56:21;8.20;99.90
16625;DHT22;8426;48.496;9.098;2023-03-15T11:01:29;8.20;99.90
16625;DHT22;8426;48.496;9.098;2023-03-15T11:06:41;9.10;99.90
16625;DHT22;8426;48.496;9.098;2023-03-15T11:11:59;9.40;99.90
16625;DHT22;8426;48.496;9.098;2023-03-15T11:17:05;9.40;99.90
16625;DHT22;8426;48.496;9.098;2023-03-15T11:22:11;9.50;99.90
16625;DHT22;8426;48.496;9.098;2023-03-15T11:27:20;9.40;99.90
16625;DHT22;8426;48.496;9.098;2023-03-15T11:32:27;10.20;99.90
16625;DHT22;8426;48.496;9.098;2023-03-15T11:37:36;10.00;99.90
16625;DHT22;8426;48.496;9.098;2023-03-15T11:42:47;9.30;99.90
16625;DHT22;8426;48.496;9.098;2023-03-15T11:47:55;9.50;99.90
16625;DHT22;8426;48.496;9.098;2023-03-15T11:53:01;9.30;99.90
16625;DHT22;8426;48.496;9.098;2023-03-15T11:58:31;9.60;99.90
16625;DHT22;8426;48.496;9.098;2023-03-15T12:03:37;9.60;99.90
16625;DHT22;8426;48.496;9.098;2023-03-15T12:08:43;9.80;99.90
16625;DHT22;8426;48.496;9.098;2023-03-15T12:13:53;10.20;99.90
16625;DHT22;8426;48.496;9.098;2023-03-15T12:19:09;10.60;99.90
16625;DHT22;8426;48.496;9.098;2023-03-15T12:24:21;10.80;99.90
16625;DHT22;8426;48.496;9.098;2023-03-15T12:29:28;10.10;99.90
16625;DHT22;8426;48.496;9.098;2023-03-15T12:34:51;9.80;99.90
16625;DHT22;8426;48.496;9.098;2023-03-15T12:40:28;9.60;99.90
16625;DHT22;8426;48.496;9.098;2023-03-15T12:45:43;9.40;99.90
16625;DHT22;8426;48.496;9.098;2023-03-15T12:50:58;9.40;99.90
16625;DHT22;8426;48.496;9.098;2023-03-15T13:01:44;10.10;99.90
16625;DHT22;8426;48.496;9.098;2023-03-15T13:06:57;10.50;99.90
16625;DHT22;8426;48.496;9.098;2023-03-15T13:12:11;10.50;99.90
16625;DHT22;8426;48.496;9.098;2023-03-15T13:17:32;10.20;99.90
16625;DHT22;8426;48.496;9.098;2023-03-15T13:22:48;10.20;99.90
16625;DHT22;8426;48.496;9.098;2023-03-15T13:27:58;9.50;99.90
16625;DHT22;8426;48.496;9.098;2023-03-15T13:33:19;9.20;99.90
16625;DHT22;8426;48.496;9.098;2023-03-15T13:38:26;9.00;99.90
16625;DHT22;8426;48.496;9.098;2023-03-15T13:43:32;8.80;99.90
16625;DHT22;8426;48.496;9.098;2023-03-15T13:48:40;9.00;99.90
16625;DHT22;8426;48.496;9.098;2023-03-15T13:53:47;9.00;99.90
16625;DHT22;8426;48.496;9.098;2023-03-15T13:58:52;9.10;99.90
16625;DHT22;8426;48.496;9.098;2023-03-15T14:04:01;9.10;99.90
16625;DHT22;8426;48.496;9.098;2023-03-15T14:09:17;8.70;99.90
16625;DHT22;8426;48.496;9.098;2023-03-15T14:14:26;8.30;99.90
16625;DHT22;8426;48.496;9.098;2023-03-15T14:19:33;8.20;99.90
16625;DHT22;8426;48.496;9.098;2023-03-15T14:24:39;8.20;99.90
16625;DHT22;8426;48.496;9.098;2023-03-15T14:29:46;8.30;99.90
16625;DHT22;8426;48.496;9.098;2023-03-15T14:34:58;8.10;99.90
16625;DHT22;8426;48.496;9.098;2023-03-15T14:40:10;8.10;99.90
16625;DHT22;8426;48.496;9.098;2023-03-15T14:45:16;7.80;99.90
16625;DHT22;8426;48.496;9.098;2023-03-15T14:50:23;7.90;99.90
16625;DHT22;8426;48.496;9.098;2023-03-15T14:55:31;7.90;99.90
16625;DHT22;8426;48.496;9.098;2023-03-15T15:00:35;8.10;99.90
16625;DHT22;8426;48.496;9.098;2023-03-15T15:05:42;8.20;99.90
16625;DHT22;8426;48.496;9.098;2023-03-15T15:10:46;8.00;99.90
16625;DHT22;8426;48.496;9.098;2023-03-15T15:15:50;7.80;99.90
16625;DHT22;8426;48.496;9.098;2023-03-15T15:21:00;7.80;99.90
16625;DHT22;8426;48.496;9.098;2023-03-15T15:26:18;7.40;99.90
16625;DHT22;8426;48.496;9.098;2023-03-15T15:31:23;6.90;99.90
16625;DHT22;8426;48.496;9.098;2023-03-15T15:36:32;6.80;99.90
16625;DHT22;8426;48.496;9.098;2023-03-15T15:41:36;6.60;99.90
16625;DHT22;8426;48.496;9.098;2023-03-15T15:46:40;6.90;99.90
16625;DHT22;8426;48.496;9.098;2023-03-15T15:51:46;6.90;99.90
16625;DHT22;8426;48.496;9.098;2023-03-15T15:56:52;6.60;99.90
16625;DHT22;8426;48.496;9.098;2023-03-15T16:01:59;6.40;99.90
16625;DHT22;8426;48.496;9.098;2023-03-15T16:07:05;6.40;99.90
16625;DHT22;8426;48.496;9.098;2023-03-15T16:12:17;6.30;99.90
16625;DHT22;8426;48.496;9.098;2023-03-15T16:17:22;6.20;99.90
16625;DHT22;8426;48.496;9.098;2023-03-15T16:22:55;5.90;99.90
16625;DHT22;8426;48.496;9.098;2023-03-15T16:28:01;5.70;99.90
16625;DHT22;8426;48.496;9.098;2023-03-15T16:33:12;5.30;99.90
16625;DHT22;8426;48.496;9.098;2023-03-15T16:38:20;5.10;99.90
16625;DHT22;8426;48.496;9.098;2023-03-15T16:43:27;5.00;99.90
16625;DHT22;8426;48.496;9.098;2023-03-15T16:48:30;5.00;99.90
16625;DHT22;8426;48.496;9.098;2023-03-15T16:54:04;4.90;99.90
16625;DHT22;8426;48.496;9.098;2023-03-15T16:59:25;4.80;99.90
16625;DHT22;8426;48.496;9.098;2023-03-15T17:04:28;4.70;99.90
16625;DHT22;8426;48.496;9.098;2023-03-15T17:09:33;4.70;99.90
16625;DHT22;8426;48.496;9.098;2023-03-15T17:14:36;4.50;99.90
16625;DHT22;8426;48.496;9.098;2023-03-15T17:19:39;4.30;99.90
16625;DHT22;8426;48.496;9.098;2023-03-15T17:24:44;4.10;99.90
16625;DHT22;8426;48.496;9.098;2023-03-15T17:29:48;4.00;99.90
16625;DHT22;8426;48.496;9.098;2023-03-15T17:34:51;3.90;99.90
16625;DHT22;8426;48.496;9.098;2023-03-15T17:40:01;3.80;99.90
16625;DHT22;8426;48.496;9.098;2023-03-15T17:45:14;3.90;99.90
16625;DHT22;8426;48.496;9.098;2023-03-15T17:50:18;3.80;99.90
16625;DHT22;8426;48.496;9.098;2023-03-15T17:55:30;3.80;99.90
16625;DHT22;8426;48.496;9.098;2023-03-15T18:00:36;3.80;99.90
16625;DHT22;8426;48.496;9.098;2023-03-15T18:05:39;3.80;99.90
16625;DHT22;8426;48.496;9.098;2023-03-15T18:10:45;3.80;99.90
16625;DHT22;8426;48.496;9.098;2023-03-15T18:15:50;3.90;99.90
16625;DHT22;8426;48.496;9.098;2023-03-15T18:20:53;3.90;99.90
16625;DHT22;8426;48.496;9.098;2023-03-15T18:25:58;3.90;99.90
16625;DHT22;8426;48.496;9.098;2023-03-15T18:31:03;3.90;99.90
16625;DHT22;8426;48.496;9.098;2023-03-15T18:36:07;3.80;99.90
16625;DHT22;8426;48.496;9.098;2023-03-15T18:41:16;3.80;99.90
16625;DHT22;8426;48.496;9.098;2023-03-15T18:46:23;3.70;99.90
16625;DHT22;8426;48.496;9.098;2023-03-15T18:51:27;3.60;99.90
16625;DHT22;8426;48.496;9.098;2023-03-15T18:56:32;3.50;99.90
16625;DHT22;8426;48.496;9.098;2023-03-15T19:01:45;3.40;99.90
16625;DHT22;8426;48.496;9.098;2023-03-15T19:06:55;3.20;99.90
16625;DHT22;8426;48.496;9.098;2023-03-15T19:12:05;3.00;99.90
16625;DHT22;8426;48.496;9.098;2023-03-15T19:17:08;2.90;99.90
16625;DHT22;8426;48.496;9.098;2023-03-15T19:22:12;2.80;99.90
16625;DHT22;8426;48.496;9.098;2023-03-15T19:27:17;2.70;99.90
16625;DHT22;8426;48.496;9.098;2023-03-15T19:32:20;2.50;99.90
16625;DHT22;8426;48.496;9.098;2023-03-15T19:37:30;2.50;99.90
16625;DHT22;8426;48.496;9.098;2023-03-15T19:42:35;2.40;99.90
16625;DHT22;8426;48.496;9.098;2023-03-15T19:47:38;2.20;99.90
16625;DHT22;8426;48.496;9.098;2023-03-15T19:52:42;2.20;99.90
16625;DHT22;8426;48.496;9.098;2023-03-15T19:57:49;2.20;99.90
16625;DHT22;8426;48.496;9.098;2023-03-15T20:02:52;2.10;99.90
16625;DHT22;8426;48.496;9.098;2023-03-15T20:07:58;2.00;99.90
16625;DHT22;8426;48.496;9.098;2023-03-15T20:13:07;1.90;99.90
16625;DHT22;8426;48.496;9.098;2023-03-15T20:18:13;1.80;99.90
16625;DHT22;8426;48.496;9.098;2023-03-15T20:23:25;1.70;99.90
16625;DHT22;8426;48.496;9.098;2023-03-15T20:28:31;1.70;99.90
16625;DHT22;8426;48.496;9.098;2023-03-15T20:33:34;1.60;99.90
16625;DHT22;8426;48.496;9.098;2023-03-15T20:38:39;1.50;99.90
16625;DHT22;8426;48.496;9.098;2023-03-15T20:43:44;1.30;99.90
16625;DHT22;8426;48.496;9.098;2023-03-15T20:48:48;1.20;99.90
16625;DHT22;8426;48.496;9.098;2023-03-15T20:53:53;1.10;99.90
16625;DHT22;8426;48.496;9.098;2023-03-15T20:58:57;0.90;99.90
16625;DHT22;8426;48.496;9.098;2023-03-15T21:04:01;0.70;99.90
16625;DHT22;8426;48.496;9.098;2023-03-15T21:09:07;0.60;99.90
16625;DHT22;8426;48.496;9.098;2023-03-15T21:14:12;0.50;99.90
16625;DHT22;8426;48.496;9.098;2023-03-15T21:19:16;0.40;99.90
16625;DHT22;8426;48.496;9.098;2023-03-15T21:24:19;0.30;99.90
16625;DHT22;8426;48.496;9.098;2023-03-15T21:29:24;0.20;99.90
16625;DHT22;8426;48.496;9.098;2023-03-15T21:34:27;0.10;99.90
16625;DHT22;8426;48.496;9.098;2023-03-15T21:39:31;0.00;99.90
16625;DHT22;8426;48.496;9.098;2023-03-15T21:44:35;0.00;99.90
16625;DHT22;8426;48.496;9.098;2023-03-15T21:49:39;-0.10;99.90
16625;DHT22;8426;48.496;9.098;2023-03-15T21:54:45;-0.20;99.90
16625;DHT22;8426;48.496;9.098;2023-03-15T21:59:50;-0.20;99.90
16625;DHT22;8426;48.496;9.098;2023-03-15T22:04:53;-0.10;99.90
16625;DHT22;8426;48.496;9.098;2023-03-15T22:09:57;0.20;99.90
16625;DHT22;8426;48.496;9.098;2023-03-15T22:15:01;0.30;99.90
16625;DHT22;8426;48.496;9.098;2023-03-15T22:20:08;0.10;99.90
16625;DHT22;8426;48.496;9.098;2023-03-15T22:25:15;0.00;99.90
16625;DHT22;8426;48.496;9.098;2023-03-15T22:30:23;-0.10;99.90
16625;DHT22;8426;48.496;9.098;2023-03-15T22:35:27;-0.20;99.90
16625;DHT22;8426;48.496;9.098;2023-03-15T22:40:30;-0.20;99.90
16625;DHT22;8426;48.496;9.098;2023-03-15T22:45:35;-0.20;99.90
16625;DHT22;8426;48.496;9.098;2023-03-15T22:50:40;-0.10;99.90
16625;DHT22;8426;48.496;9.098;2023-03-15T22:55:43;0.00;99.90
16625;DHT22;8426;48.496;9.098;2023-03-15T23:00:48;0.10;99.90
16625;DHT22;8426;48.496;9.098;2023-03-15T23:05:52;0.10;99.90
16625;DHT22;8426;48.496;9.098;2023-03-15T23:10:56;0.10;99.90
16625;DHT22;8426;48.496;9.098;2023-03-15T23:16:02;0.00;99.90
16625;DHT22;8426;48.496;9.098;2023-03-15T23:21:07;-0.10;99.90
16625;DHT22;8426;48.496;9.098;2023-03-15T23:26:14;-0.20;99.90
16625;DHT22;8426;48.496;9.098;2023-03-15T23:31:21;-0.40;99.90
16625;DHT22;8426;48.496;9.098;2023-03-15T23:36:24;-0.50;99.90
16625;DHT22;8426;48.496;9.098;2023-03-15T23:41:28;-0.50;99.90
16625;DHT22;8426;48.496;9.098;2023-03-15T23:46:32;-0.50;99.90
16625;DHT22;8426;48.496;9.098;2023-03-15T23:51:37;-0.40;99.90
16625;DHT22;8426;48.496;9.098;2023-03-15T23:56:41;-0.50;99.90
